Time;durP1;ratioP1;P1;durP2;ratioP2;P2;SDS_P1;SDS_P2;PMS_P1;PMS_P2;Temp;Humidity;BMP_temperature;BMP_pressure;BME280_temperature;BME280_humidity;BME280_pressure;Samples;Min_cycle;Max_cycle;Signal;HPM_P1;HPM_P2
2021/07/26 19:33:44;;;;;;;;;;;;;;;28.77;38.78;95017.88;2934682;40;19952;-69
2021/07/26 19:35:46;;;;;;;;;;;;;;;28.72;38.65;95023.28;2940719;40;20025;-69
2021/07/26 19:37:48;;;;;;;;;;;;;;;28.61;38.17;95016.19;2946921;40;20298;-68
2021/07/26 19:39:49;;;;;;;;;;;;;;;28.53;38.77;95018.34;2948284;40;19942;-68
2021/07/26 19:41:51;;;;;;;;;;;;;;;28.51;38.82;95012.41;2949938;40;20261;-69
2021/07/26 19:43:53;;;;;;;;;;;;;;;28.52;38.89;95013.22;2948946;40;19952;-80
2021/07/26 19:45:54;;;;;;;;;;;;;;;28.50;39.17;95010.81;2934393;40;19970;-79
2021/07/26 19:47:56;;;;;;;;;;;;;;;28.45;38.75;95018.81;2950937;40;20285;-82
2021/07/26 19:49:57;;;;;;;;;;;;;;;28.37;38.90;95013.94;2942803;40;20035;-79
2021/07/26 19:51:59;;;;;;;;;;;;;;;28.22;39.18;95011.97;2954189;40;20038;-83
2021/07/26 19:54:04;;;;;;;;;;;;;;;28.21;39.79;95007.69;2952351;40;20018;-81
2021/07/26 19:56:06;;;;;;;;;;;;;;;28.10;39.66;95014.91;2951100;40;19984;-81
2021/07/26 19:58:08;;;;;;;;;;;;;;;27.87;40.00;95001.84;2952315;40;20287;-79
2021/07/26 20:00:12;;;;;;;;;;;;;;;27.81;40.12;95010.91;2950399;40;19941;-81
2021/07/26 20:02:13;;;;;;;;;;;;;;;27.80;40.11;95014.69;2951068;40;19953;-81
2021/07/26 20:04:15;;;;;;;;;;;;;;;27.84;40.34;95011.22;2952626;40;20038;-82
2021/07/26 20:06:16;;;;;;;;;;;;;;;27.89;40.70;95013.97;2950748;40;19952;-80
2021/07/26 20:08:18;;;;;;;;;;;;;;;27.90;40.45;95012.06;2950237;40;20287;-82
2021/07/26 20:10:20;;;;;;;;;;;;;;;27.64;40.96;95017.28;2950980;40;20020;-80
2021/07/26 20:12:26;;;;;;;;;;;;;;;27.50;41.30;95016.09;2949725;40;19933;-81
2021/07/26 20:14:46;;;;;;;;;;;;;;;27.30;41.94;95016.75;2954442;40;19956;-81
2021/07/26 20:16:47;;;;;;;;;;;;;;;27.24;42.40;95015.88;2950789;40;20364;-80
2021/07/26 20:18:49;;;;;;;;;;;;;;;27.23;42.59;95016.13;2950847;40;20247;-80
2021/07/26 20:20:51;;;;;;;;;;;;;;;27.28;42.29;95022.38;2950965;40;19949;-79
2021/07/26 20:22:52;;;;;;;;;;;;;;;27.39;41.88;95020.59;2950146;40;19960;-80
2021/07/26 20:24:55;;;;;;;;;;;;;;;27.44;42.15;95023.31;2945552;40;19953;-80
2021/07/26 20:26:57;;;;;;;;;;;;;;;27.47;42.31;95032.75;2953789;40;19947;-79
2021/07/26 20:28:58;;;;;;;;;;;;;;;27.47;41.80;95032.75;2951717;40;19943;-81
2021/07/26 20:31:00;;;;;;;;;;;;;;;27.47;41.99;95032.75;2954647;40;20023;-82
2021/07/26 20:33:02;;;;;;;;;;;;;;;27.50;41.80;95032.25;2953057;40;19948;-82
2021/07/26 20:35:04;;;;;;;;;;;;;;;27.52;41.90;95030.91;2952654;40;19957;-81
2021/07/26 20:37:06;;;;;;;;;;;;;;;27.48;41.70;95037.06;2948888;40;19961;-80
2021/07/26 20:39:10;;;;;;;;;;;;;;;27.47;41.42;95027.34;2941796;40;19952;-81
2021/07/26 20:41:16;;;;;;;;;;;;;;;27.49;41.58;95030.59;2950940;40;19953;-81
2021/07/26 20:43:18;;;;;;;;;;;;;;;27.50;41.98;95037.63;2943522;40;20023;-81
2021/07/26 20:45:19;;;;;;;;;;;;;;;27.50;42.08;95035.75;2951478;40;19945;-80
2021/07/26 20:47:21;;;;;;;;;;;;;;;27.51;41.45;95033.84;2947599;40;19967;-79
2021/07/26 20:49:23;;;;;;;;;;;;;;;27.48;41.32;95035.19;2950609;40;20296;-81
2021/07/26 20:51:25;;;;;;;;;;;;;;;27.49;41.34;95038.69;2947165;40;20026;-81
2021/07/26 20:53:26;;;;;;;;;;;;;;;27.46;41.63;95033.81;2950991;40;20288;-81
2021/07/26 20:55:28;;;;;;;;;;;;;;;27.45;41.28;95034.88;2954110;40;19969;-83
2021/07/26 20:57:29;;;;;;;;;;;;;;;27.42;41.96;95038.91;2951947;40;20164;-80
2021/07/26 20:59:37;;;;;;;;;;;;;;;27.35;41.34;95036.41;2949831;40;19952;-81
2021/07/26 21:01:38;;;;;;;;;;;;;;;27.31;41.25;95031.81;2951113;40;20020;-79
2021/07/26 21:03:40;;;;;;;;;;;;;;;27.29;41.75;95034.75;2946618;40;19949;-79
2021/07/26 21:05:42;;;;;;;;;;;;;;;27.28;41.46;95038.53;2939154;40;20260;-78
2021/07/26 21:07:43;;;;;;;;;;;;;;;27.27;41.40;95044.94;2949717;40;20317;-78
2021/07/26 21:09:45;;;;;;;;;;;;;;;27.22;41.79;95047.59;2951931;40;19968;-82
2021/07/26 21:11:47;;;;;;;;;;;;;;;27.19;41.33;95037.34;2948937;40;19937;-82
2021/07/26 21:13:53;;;;;;;;;;;;;;;27.18;41.50;95038.41;2946038;40;20278;-80
2021/07/26 21:16:00;;;;;;;;;;;;;;;27.18;41.42;95043.78;2957428;40;20026;-80
2021/07/26 21:18:01;;;;;;;;;;;;;;;27.13;41.17;95043.75;2959365;40;20309;-79
2021/07/26 21:20:03;;;;;;;;;;;;;;;27.10;41.22;95049.59;2949447;40;19943;-84
2021/07/26 21:22:05;;;;;;;;;;;;;;;27.08;40.84;95049.03;2959295;40;19941;-80
2021/07/26 21:24:10;;;;;;;;;;;;;;;27.06;40.73;95051.19;2953527;40;20224;-80
2021/07/26 21:26:12;;;;;;;;;;;;;;;27.03;41.09;95052.50;2953292;40;19945;-80
2021/07/26 21:28:14;;;;;;;;;;;;;;;27.03;40.67;95054.38;2951184;40;19937;-81
2021/07/26 21:30:16;;;;;;;;;;;;;;;27.02;40.82;95058.13;2943691;40;19946;-79
2021/07/26 21:32:18;;;;;;;;;;;;;;;27.02;40.79;95058.13;2949261;40;20330;-80
2021/07/26 21:34:23;;;;;;;;;;;;;;;27.00;40.49;95060.28;2948585;40;20021;-80
2021/07/26 21:36:24;;;;;;;;;;;;;;;26.98;40.82;95062.41;2948912;40;19945;-83
2021/07/26 21:38:26;;;;;;;;;;;;;;;26.97;40.51;95061.56;2954056;40;20298;-77
2021/07/26 21:40:27;;;;;;;;;;;;;;;26.94;40.70;95070.97;2953789;40;19937;-83
2021/07/26 21:42:29;;;;;;;;;;;;;;;26.88;40.60;95069.28;2944954;40;19937;-80
2021/07/26 21:44:30;;;;;;;;;;;;;;;26.89;40.91;95070.13;2947685;40;19945;-80
2021/07/26 21:46:32;;;;;;;;;;;;;;;26.90;41.04;95066.34;2950009;40;20183;-79
2021/07/26 21:48:34;;;;;;;;;;;;;;;26.87;40.98;95061.50;2952484;40;19944;-79
2021/07/26 21:50:35;;;;;;;;;;;;;;;26.85;40.84;95061.72;2952022;40;20027;-81
2021/07/26 21:52:37;;;;;;;;;;;;;;;26.83;41.01;95065.75;2950130;40;19953;-81
2021/07/26 21:54:39;;;;;;;;;;;;;;;26.76;41.49;95076.69;2953222;40;19945;-80
2021/07/26 21:56:40;;;;;;;;;;;;;;;26.73;42.42;95072.59;2947566;40;19969;-79
2021/07/26 21:58:43;;;;;;;;;;;;;;;26.64;42.71;95074.13;2943885;40;20003;-80
2021/07/26 22:00:45;;;;;;;;;;;;;;;26.59;42.83;95075.91;2948844;40;20058;-80
2021/07/26 22:02:46;;;;;;;;;;;;;;;26.58;43.01;95074.31;2937997;40;20450;-80
2021/07/26 22:04:48;;;;;;;;;;;;;;;26.59;43.26;95083.97;2953668;40;20292;-80
2021/07/26 22:06:49;;;;;;;;;;;;;;;26.51;43.17;95079.84;2952580;40;20292;-78
2021/07/26 22:08:51;;;;;;;;;;;;;;;26.28;44.29;95076.31;2947079;40;19939;-80
2021/07/26 22:10:53;;;;;;;;;;;;;;;26.13;45.08;95082.28;2950199;40;20286;-83
2021/07/26 22:12:54;;;;;;;;;;;;;;;26.07;45.26;95080.63;2952723;40;19956;-77
2021/07/26 22:14:59;;;;;;;;;;;;;;;26.10;45.38;95085.47;2950739;40;20391;-79
2021/07/26 22:17:00;;;;;;;;;;;;;;;26.13;45.10;95084.97;2947689;40;19950;-80
2021/07/26 22:19:02;;;;;;;;;;;;;;;26.20;45.16;95087.50;2939423;40;20342;-81
2021/07/26 22:21:05;;;;;;;;;;;;;;;26.20;45.16;95092.03;2941348;40;20063;-79
2021/07/26 22:23:06;;;;;;;;;;;;;;;26.20;45.09;95089.34;2949578;40;20482;-78
2021/07/26 22:25:26;;;;;;;;;;;;;;;26.19;45.04;95085.06;2950688;40;19951;-79
2021/07/26 22:27:28;;;;;;;;;;;;;;;26.24;44.73;95093.19;2953803;40;20046;-78
2021/07/26 22:29:30;;;;;;;;;;;;;;;26.21;44.79;95091.81;2952779;40;19941;-79
2021/07/26 22:31:31;;;;;;;;;;;;;;;26.20;44.84;95084.00;2949200;40;20035;-81
2021/07/26 22:33:33;;;;;;;;;;;;;;;26.19;44.76;95085.06;2950632;40;19953;-80
2021/07/26 22:35:39;;;;;;;;;;;;;;;26.17;44.50;95079.94;2949308;40;19937;-78
2021/07/26 22:37:41;;;;;;;;;;;;;;;26.21;44.35;95085.63;2949728;40;19949;-80
2021/07/26 22:39:42;;;;;;;;;;;;;;;26.23;44.21;95078.13;2940953;40;20335;-79
2021/07/26 22:41:44;;;;;;;;;;;;;;;26.23;44.31;95083.50;2941984;40;19995;-79
2021/07/26 22:43:45;;;;;;;;;;;;;;;26.15;44.77;95076.69;2945741;40;20024;-81
2021/07/26 22:45:47;;;;;;;;;;;;;;;26.12;44.38;95078.00;2949207;40;19948;-82
2021/07/26 22:47:48;;;;;;;;;;;;;;;26.11;44.39;95087.13;2937906;40;19945;-80
2021/07/26 22:49:50;;;;;;;;;;;;;;;26.10;44.16;95082.78;2947367;40;19952;-79
2021/07/26 22:51:52;;;;;;;;;;;;;;;26.05;44.91;95088.09;2953370;40;20012;-80
2021/07/26 22:53:53;;;;;;;;;;;;;;;26.02;45.10;95085.88;2943910;40;19968;-79
2021/07/26 22:55:55;;;;;;;;;;;;;;;25.96;44.92;95073.44;2950092;40;20282;-79
2021/07/26 22:57:56;;;;;;;;;;;;;;;25.93;44.79;95073.97;2953613;40;20305;-80
2021/07/26 22:59:59;;;;;;;;;;;;;;;25.94;44.79;95073.72;2952452;40;19955;-78
2021/07/26 23:02:01;;;;;;;;;;;;;;;25.92;45.14;95072.31;2947264;40;19941;-79
2021/07/26 23:04:05;;;;;;;;;;;;;;;25.88;45.10;95076.53;2944318;40;19941;-80
2021/07/26 23:06:06;;;;;;;;;;;;;;;25.81;44.90;95078.56;2948734;40;19949;-80
2021/07/26 23:08:08;;;;;;;;;;;;;;;25.79;44.86;95080.69;2950095;40;19972;-78
2021/07/26 23:10:10;;;;;;;;;;;;;;;25.79;44.90;95083.38;2948124;40;20023;-81
2021/07/26 23:12:11;;;;;;;;;;;;;;;25.78;45.23;95079.88;2949309;40;19941;-80
2021/07/26 23:14:13;;;;;;;;;;;;;;;25.75;45.27;95083.88;2940970;40;20594;-80
2021/07/26 23:16:14;;;;;;;;;;;;;;;25.73;45.23;95079.81;2948345;40;20039;-80
2021/07/26 23:18:16;;;;;;;;;;;;;;;25.69;45.27;95078.66;2949504;40;19937;-79
2021/07/26 23:20:17;;;;;;;;;;;;;;;25.72;45.42;95086.22;2952597;40;20197;-79
2021/07/26 23:22:19;;;;;;;;;;;;;;;25.74;45.45;95081.41;2950209;40;20247;-80
2021/07/26 23:24:20;;;;;;;;;;;;;;;25.72;45.71;95080.84;2953405;40;19941;-79
2021/07/26 23:26:22;;;;;;;;;;;;;;;25.71;45.42;95079.22;2953078;40;20046;-80
2021/07/26 23:28:24;;;;;;;;;;;;;;;25.69;45.35;95084.84;2950121;40;20023;-79
2021/07/26 23:30:25;;;;;;;;;;;;;;;25.67;45.47;95080.78;2947820;40;19953;-78
2021/07/26 23:32:27;;;;;;;;;;;;;;;25.68;45.47;95085.91;2947630;40;19999;-79
2021/07/26 23:34:28;;;;;;;;;;;;;;;25.65;45.60;95086.38;2948121;40;19941;-81
2021/07/26 23:36:30;;;;;;;;;;;;;;;25.63;45.34;95085.81;2952390;40;20250;-79
2021/07/26 23:38:32;;;;;;;;;;;;;;;25.56;45.43;95082.47;2953559;40;20313;-79
2021/07/26 23:40:35;;;;;;;;;;;;;;;25.52;45.38;95090.19;2942109;40;20021;-78
2021/07/26 23:42:37;;;;;;;;;;;;;;;25.52;45.06;95094.75;2944577;40;19995;-69
2021/07/26 23:44:38;;;;;;;;;;;;;;;25.52;45.01;95094.75;2940964;40;20032;-69
2021/07/26 23:46:40;;;;;;;;;;;;;;;25.51;45.26;95098.47;2941036;40;20342;-68
2021/07/26 23:48:42;;;;;;;;;;;;;;;25.49;44.99;95087.19;2950384;40;19948;-68
2021/07/26 23:50:43;;;;;;;;;;;;;;;25.46;44.85;95087.69;2939580;40;19938;-66
2021/07/26 23:52:49;;;;;;;;;;;;;;;25.43;45.05;95093.53;2949145;40;19944;-68
2021/07/26 23:54:51;;;;;;;;;;;;;;;25.39;45.24;95095.88;2940837;40;20275;-67
2021/07/26 23:56:52;;;;;;;;;;;;;;;25.43;45.00;95097.03;2950308;40;20035;-68
2021/07/26 23:58:54;;;;;;;;;;;;;;;25.43;45.05;95093.53;2951059;40;20012;-80
